createdAt,value
2018-07-20T00:02:12.391Z,98394.64
2018-07-20T00:04:40.885Z,98393.87
2018-07-20T00:07:09.374Z,98393.00
2018-07-20T00:09:37.969Z,98391.86
2018-07-20T00:12:06.714Z,98383.70
2018-07-20T00:14:35.343Z,98391.39
2018-07-20T00:17:04.117Z,98390.78
2018-07-20T00:19:32.758Z,98388.19
2018-07-20T00:22:01.434Z,98388.73
2018-07-20T00:24:29.911Z,98381.53
2018-07-20T00:26:58.539Z,98381.34
2018-07-20T00:29:27.066Z,98379.08
2018-07-20T00:31:55.633Z,98373.84
2018-07-20T00:34:24.117Z,98364.13
2018-07-20T00:36:52.570Z,98369.82
2018-07-20T00:39:21.081Z,98361.20
2018-07-20T00:41:49.559Z,98359.32
2018-07-20T00:44:18.200Z,98360.77
2018-07-20T00:46:46.837Z,98361.20
2018-07-20T00:49:15.308Z,98360.15
2018-07-20T00:51:43.778Z,98366.01
2018-07-20T00:54:12.241Z,98368.20
2018-07-20T00:56:40.798Z,98362.84
2018-07-20T00:59:10.383Z,98363.16
2018-07-20T01:01:38.976Z,98359.17
2018-07-20T01:04:07.474Z,98363.94
2018-07-20T01:06:35.960Z,98362.98
2018-07-20T01:09:07.693Z,98365.70
2018-07-20T01:11:36.184Z,98365.19
2018-07-20T01:14:04.772Z,98365.02
2018-07-20T01:16:33.353Z,98359.53
2018-07-20T01:19:01.827Z,98361.06
2018-07-20T01:21:30.310Z,98354.93
2018-07-20T01:23:59.006Z,98347.05
2018-07-20T01:26:27.498Z,98347.31
2018-07-20T01:28:56.090Z,98348.41
2018-07-20T01:31:24.665Z,98343.73
2018-07-20T01:33:53.258Z,98342.38
2018-07-20T01:36:21.814Z,98338.44
2018-07-20T01:38:50.262Z,98334.50
2018-07-20T01:41:18.791Z,98339.53
2018-07-20T01:43:47.408Z,98339.27
2018-07-20T01:46:16.062Z,98343.85
2018-07-20T01:48:44.546Z,98343.85
2018-07-20T01:51:13.081Z,98339.52
2018-07-20T01:53:41.589Z,98339.66
2018-07-20T02:02:42.527Z,98346.33
2018-07-20T02:05:11.118Z,98341.33
2018-07-20T02:07:39.626Z,98334.94
2018-07-20T02:10:08.520Z,98332.16
2018-07-20T02:12:37.074Z,98333.11
2018-07-20T02:15:06.053Z,98330.91
2018-07-20T02:17:34.667Z,98330.15
2018-07-20T02:20:03.674Z,98322.15
2018-07-20T02:22:32.227Z,98326.04
2018-07-20T02:25:00.859Z,98320.75
2018-07-20T02:27:29.374Z,98314.77
2018-07-20T02:29:57.810Z,98321.12
2018-07-20T02:32:26.551Z,98317.40
2018-07-20T02:34:55.222Z,98315.38
2018-07-20T02:37:23.690Z,98309.61
2018-07-20T02:39:52.165Z,98307.81
2018-07-20T02:42:20.885Z,98310.21
2018-07-20T02:44:49.563Z,98315.77
2018-07-20T02:47:18.042Z,98316.47
2018-07-20T02:49:46.632Z,98325.62
2018-07-20T02:52:15.198Z,98320.46
2018-07-20T02:54:43.685Z,98324.76
2018-07-20T02:57:12.254Z,98317.66
2018-07-20T02:59:40.775Z,98316.48
2018-07-20T03:02:09.350Z,98326.64
2018-07-20T03:04:37.961Z,98321.66
2018-07-20T03:07:06.962Z,98324.06
2018-07-20T03:09:35.796Z,98322.05
2018-07-20T03:12:04.407Z,98317.32
2018-07-20T03:14:32.964Z,98318.66
2018-07-20T03:17:01.480Z,98318.78
2018-07-20T03:19:30.042Z,98325.01
2018-07-20T03:21:58.799Z,98326.09
2018-07-20T03:24:27.266Z,98323.63
2018-07-20T03:26:55.794Z,98330.81
2018-07-20T03:29:24.245Z,98320.28
2018-07-20T03:31:52.731Z,98315.41
2018-07-20T03:34:21.237Z,98311.38
2018-07-20T03:36:49.709Z,98309.92
2018-07-20T03:39:18.746Z,98315.69
2018-07-20T03:41:47.390Z,98317.43
2018-07-20T03:44:15.838Z,98323.92
2018-07-20T03:46:44.429Z,98332.74
2018-07-20T03:49:13.005Z,98333.61
2018-07-20T03:51:41.485Z,98328.91
2018-07-20T03:54:09.993Z,98334.13
2018-07-20T03:56:38.734Z,98336.80
2018-07-20T03:59:07.337Z,98342.73
2018-07-20T04:01:35.839Z,98339.64
2018-07-20T04:06:31.920Z,98341.41
2018-07-20T04:09:01.230Z,98342.50
2018-07-20T04:11:30.006Z,98341.16
2018-07-20T04:13:58.581Z,98329.22
2018-07-20T04:16:27.113Z,98327.42
2018-07-20T04:18:55.750Z,98328.66
2018-07-20T04:21:24.462Z,98328.80
2018-07-20T04:23:53.013Z,98331.20
2018-07-20T04:26:21.706Z,98328.80
2018-07-20T04:28:50.759Z,98336.90
2018-07-20T04:31:19.451Z,98346.27
2018-07-20T04:33:48.129Z,98346.01
2018-07-20T04:36:18.608Z,98344.70
2018-07-20T04:38:47.466Z,98342.94
2018-07-20T04:41:16.623Z,98342.28
2018-07-20T04:43:45.245Z,98346.08
2018-07-20T04:46:13.723Z,98345.06
2018-07-20T04:48:42.306Z,98350.84
2018-07-20T04:51:11.022Z,98351.58
2018-07-20T04:53:39.842Z,98350.84
2018-07-20T04:56:08.402Z,98356.81
2018-07-20T04:58:37.237Z,98361.10
2018-07-20T05:01:06.100Z,98358.84
2018-07-20T05:03:34.637Z,98348.25
2018-07-20T05:06:03.111Z,98346.89
2018-07-20T05:08:31.779Z,98340.23
2018-07-20T05:11:00.311Z,98341.16
2018-07-20T05:13:28.750Z,98337.60
2018-07-20T05:15:57.326Z,98335.48
2018-07-20T05:18:26.069Z,98332.64
2018-07-20T05:20:54.558Z,98334.16
2018-07-20T05:23:23.240Z,98332.84
2018-07-20T05:25:51.824Z,98333.81
2018-07-20T05:28:20.450Z,98333.31
2018-07-20T05:30:49.111Z,98330.97
2018-07-20T05:33:17.694Z,98331.48
2018-07-20T05:35:46.659Z,98323.27
2018-07-20T05:38:15.213Z,98318.50
2018-07-20T05:40:43.794Z,98310.55
2018-07-20T05:43:12.297Z,98308.09
2018-07-20T05:45:40.793Z,98307.38
2018-07-20T05:48:09.665Z,98295.55
2018-07-20T05:50:42.457Z,98304.36
2018-07-20T05:53:10.933Z,98297.32
2018-07-20T05:55:39.463Z,98292.59
2018-07-20T05:58:08.296Z,98303.41
2018-07-20T06:00:37.375Z,98305.08
2018-07-20T06:03:05.999Z,98306.53
2018-07-20T06:05:34.599Z,98318.18
2018-07-20T06:08:03.035Z,98312.91
2018-07-20T06:10:31.691Z,98317.11
2018-07-20T06:15:28.079Z,98318.84
2018-07-20T06:17:56.734Z,98318.77
2018-07-20T06:20:25.315Z,98314.80
2018-07-20T06:22:53.821Z,98316.61
2018-07-20T06:25:23.021Z,98321.95
2018-07-20T06:27:51.563Z,98322.79
2018-07-20T06:30:20.126Z,98321.63
2018-07-20T06:32:48.804Z,98324.88
2018-07-20T06:35:17.436Z,98321.73
2018-07-20T06:37:46.006Z,98325.22
2018-07-20T06:40:14.542Z,98320.48
2018-07-20T06:42:43.140Z,98327.28
2018-07-20T06:45:11.654Z,98329.51
2018-07-20T06:47:40.239Z,98327.41
2018-07-20T06:50:13.947Z,98337.88
2018-07-20T06:52:42.560Z,98333.27
2018-07-20T06:55:11.323Z,98333.90
2018-07-20T06:57:39.932Z,98329.61
2018-07-20T07:00:09.104Z,98317.76
2018-07-20T07:02:37.765Z,98325.32
2018-07-20T07:05:08.318Z,98321.75
2018-07-20T07:07:36.904Z,98319.77
2018-07-20T07:10:05.961Z,98312.58
2018-07-20T07:12:34.587Z,98312.34
2018-07-20T07:15:03.188Z,98319.16
2018-07-20T07:17:31.716Z,98311.59
2018-07-20T07:20:00.183Z,98317.50
2018-07-20T07:22:28.851Z,98318.63
2018-07-20T07:24:57.370Z,98316.80
2018-07-20T07:27:25.949Z,98319.63
2018-07-20T07:29:54.479Z,98313.60
2018-07-20T07:32:23.064Z,98309.89
2018-07-20T07:34:51.578Z,98309.92
2018-07-20T07:37:20.067Z,98313.80
2018-07-20T07:39:48.800Z,98309.77
2018-07-20T07:42:17.691Z,98313.50
2018-07-20T07:44:46.227Z,98309.86
2018-07-20T07:47:14.764Z,98313.92
2018-07-20T07:49:43.285Z,98310.81
2018-07-20T07:52:11.850Z,98311.86
2018-07-20T07:54:40.427Z,98312.39
2018-07-20T07:57:09.003Z,98312.10
2018-07-20T07:59:37.620Z,98313.28
2018-07-20T08:02:06.502Z,98317.47
2018-07-20T08:04:35.203Z,98318.48
2018-07-20T08:07:03.806Z,98317.02
2018-07-20T08:09:32.398Z,98314.14
2018-07-20T08:12:01.173Z,98313.80
2018-07-20T08:14:29.668Z,98314.92
2018-07-20T08:16:58.289Z,98308.34
2018-07-20T08:19:26.746Z,98311.27
2018-07-20T08:21:55.282Z,98314.48
2018-07-20T08:24:23.933Z,98312.60
2018-07-20T08:26:52.530Z,98316.80
2018-07-20T08:29:21.479Z,98316.70
2018-07-20T08:31:50.051Z,98308.97
2018-07-20T08:34:18.572Z,98306.23
2018-07-20T08:36:47.215Z,98313.77
2018-07-20T08:39:15.725Z,98302.17
2018-07-20T08:41:44.185Z,98302.33
2018-07-20T08:44:12.669Z,98296.16
2018-07-20T08:46:41.292Z,98290.25
2018-07-20T08:49:09.638Z,98287.59
2018-07-20T08:51:38.244Z,98290.19
2018-07-20T08:54:06.841Z,98292.95
2018-07-20T08:56:35.350Z,98292.13
2018-07-20T08:59:03.857Z,98289.92
2018-07-20T09:01:32.548Z,98296.95
2018-07-20T09:04:01.131Z,98293.27
2018-07-20T09:06:29.650Z,98285.42
2018-07-20T09:08:58.197Z,98284.08
2018-07-20T09:11:26.678Z,98281.48
2018-07-20T09:13:55.239Z,98278.67
2018-07-20T09:16:23.751Z,98278.81
2018-07-20T09:18:52.225Z,98278.88
2018-07-20T09:21:20.737Z,98273.38
2018-07-20T09:23:49.431Z,98270.30
2018-07-20T09:26:17.962Z,98266.20
2018-07-20T09:28:46.879Z,98259.10
2018-07-20T09:31:15.607Z,98263.34
2018-07-20T09:33:44.242Z,98262.80
2018-07-20T09:36:12.860Z,98264.48
2018-07-20T09:38:41.831Z,98263.10
2018-07-20T09:41:10.361Z,98267.52
2018-07-20T09:43:39.090Z,98264.98
2018-07-20T09:46:07.775Z,98271.94
2018-07-20T09:48:36.550Z,98268.54
2018-07-20T09:51:05.236Z,98266.03
2018-07-20T09:53:33.735Z,98267.52
2018-07-20T09:56:06.950Z,98268.42
2018-07-20T09:58:35.617Z,98262.69
2018-07-20T10:01:04.259Z,98267.44
2018-07-20T10:03:32.926Z,98263.79
2018-07-20T10:06:01.618Z,98267.98
2018-07-20T10:08:30.109Z,98261.28
2018-07-20T10:10:58.634Z,98265.05
2018-07-20T10:13:27.134Z,98257.45
2018-07-20T10:15:55.750Z,98251.84
2018-07-20T10:18:24.266Z,98254.87
2018-07-20T10:20:52.756Z,98256.05
2018-07-20T10:23:21.266Z,98255.70
2018-07-20T10:25:49.881Z,98257.39
2018-07-20T10:28:18.597Z,98258.46
2018-07-20T10:30:47.302Z,98257.86
2018-07-20T10:33:15.844Z,98254.56
2018-07-20T10:35:44.362Z,98246.39
2018-07-20T10:38:12.814Z,98237.09
2018-07-20T10:40:41.313Z,98247.45
2018-07-20T10:43:09.850Z,98238.97
2018-07-20T10:45:38.537Z,98237.39
2018-07-20T10:48:07.076Z,98239.55
2018-07-20T10:50:35.559Z,98233.19
2018-07-20T10:53:04.118Z,98230.78
2018-07-20T10:55:32.684Z,98235.80
2018-07-20T10:58:01.165Z,98235.55
2018-07-20T11:00:29.718Z,98221.94
2018-07-20T11:02:58.303Z,98228.91
2018-07-20T11:05:26.863Z,98222.94
2018-07-20T11:07:55.493Z,98221.98
2018-07-20T11:10:24.187Z,98221.86
2018-07-20T11:12:52.781Z,98207.01
2018-07-20T11:15:21.405Z,98217.13
2018-07-20T11:17:50.889Z,98210.00
2018-07-20T11:20:19.433Z,98204.01
2018-07-20T11:22:47.949Z,98208.98
2018-07-20T11:25:16.449Z,98210.36
2018-07-20T11:27:45.052Z,98202.66
2018-07-20T11:30:13.632Z,98201.81
2018-07-20T11:32:42.077Z,98192.97
2018-07-20T11:35:10.802Z,98186.09
2018-07-20T11:37:39.265Z,98183.16
2018-07-20T11:40:07.787Z,98179.55
2018-07-20T11:42:36.503Z,98176.56
2018-07-20T11:45:05.275Z,98180.56
2018-07-20T11:47:33.824Z,98171.20
2018-07-20T11:50:02.442Z,98163.23
2018-07-20T11:52:31.068Z,98163.70
2018-07-20T11:54:59.646Z,98151.07
2018-07-20T11:57:28.174Z,98160.92
2018-07-20T11:59:56.762Z,98153.62
2018-07-20T12:02:25.832Z,98159.02
2018-07-20T12:04:54.637Z,98159.06
2018-07-20T12:07:23.210Z,98163.56
2018-07-20T12:09:51.923Z,98168.01
2018-07-20T12:12:20.733Z,98168.88
2018-07-20T12:14:51.604Z,98160.47
2018-07-20T12:17:20.141Z,98149.41
2018-07-20T12:19:49.027Z,98150.95
2018-07-20T12:22:17.827Z,98152.87
2018-07-20T12:24:46.410Z,98158.83
2018-07-20T12:27:15.136Z,98159.45
2018-07-20T12:29:43.946Z,98164.38
2018-07-20T12:32:12.433Z,98164.20
2018-07-20T12:34:41.061Z,98166.38
2018-07-20T12:37:09.577Z,98173.95
2018-07-20T12:39:42.570Z,98173.66
2018-07-20T12:42:11.099Z,98190.09
2018-07-20T12:44:39.646Z,98202.16
2018-07-20T12:47:08.133Z,98219.03
2018-07-20T12:49:36.595Z,98214.38
2018-07-20T12:52:05.195Z,98208.18
2018-07-20T12:54:33.686Z,98210.31
2018-07-20T12:57:02.360Z,98205.43
2018-07-20T12:59:30.930Z,98202.39
2018-07-20T13:01:59.430Z,98206.74
2018-07-20T13:04:27.857Z,98216.37
2018-07-20T13:06:56.500Z,98203.47
2018-07-20T13:09:25.057Z,98198.66
2018-07-20T13:11:53.632Z,98193.46
2018-07-20T13:14:22.261Z,98193.55
2018-07-20T13:16:50.855Z,98204.72
2018-07-20T13:19:19.447Z,98198.13
2018-07-20T13:21:48.034Z,98185.77
2018-07-20T13:24:16.725Z,98184.50
2018-07-20T13:26:45.245Z,98185.92
2018-07-20T13:29:13.787Z,98187.77
2018-07-20T13:31:42.663Z,98179.97
2018-07-20T13:34:11.466Z,98183.30
2018-07-20T13:36:40.028Z,98186.37
2018-07-20T13:41:40.312Z,98168.54
2018-07-20T13:44:08.822Z,98163.31
2018-07-20T13:46:37.366Z,98155.55
2018-07-20T13:49:06.133Z,98158.25
2018-07-20T13:51:36.664Z,98158.70
2018-07-20T13:54:09.537Z,98157.11
2018-07-20T13:56:38.162Z,98157.27
2018-07-20T13:59:06.712Z,98149.20
2018-07-20T14:01:35.407Z,98152.78
2018-07-20T14:04:04.026Z,98153.80
2018-07-20T14:06:32.529Z,98145.20
2018-07-20T14:09:01.049Z,98144.21
2018-07-20T14:11:29.643Z,98147.95
2018-07-20T14:13:58.106Z,98142.09
2018-07-20T14:16:26.649Z,98141.72
2018-07-20T14:18:55.253Z,98130.66
2018-07-20T14:21:23.723Z,98123.49
2018-07-20T14:23:52.242Z,98116.92
2018-07-20T14:26:20.806Z,98110.75
2018-07-20T14:28:49.341Z,98100.31
2018-07-20T14:31:17.867Z,98098.62
2018-07-20T14:33:46.476Z,98092.89
2018-07-20T14:36:15.039Z,98095.70
2018-07-20T14:38:43.521Z,98096.27
2018-07-20T14:41:11.988Z,98083.50
2018-07-20T14:43:40.506Z,98093.66
2018-07-20T14:46:09.145Z,98088.34
2018-07-20T14:48:37.744Z,98088.92
2018-07-20T14:51:06.302Z,98096.52
2018-07-20T14:53:34.869Z,98097.80
2018-07-20T14:56:03.423Z,98105.02
2018-07-20T14:58:31.961Z,98108.81
2018-07-20T15:01:00.485Z,98119.95
2018-07-20T15:03:29.049Z,98126.87
2018-07-20T15:05:57.542Z,98127.33
2018-07-20T15:08:26.514Z,98128.22
2018-07-20T15:10:55.222Z,98137.30
2018-07-20T15:13:24.100Z,98146.73
2018-07-20T15:15:52.614Z,98150.23
2018-07-20T15:18:21.162Z,98153.11
2018-07-20T15:20:49.809Z,98156.52
2018-07-20T15:23:18.422Z,98157.05
2018-07-20T15:25:47.174Z,98161.66
2018-07-20T15:28:15.753Z,98161.06
2018-07-20T15:30:44.354Z,98147.97
2018-07-20T15:33:12.880Z,98148.58
2018-07-20T15:35:41.791Z,98146.70
2018-07-20T15:38:10.383Z,98145.64
2018-07-20T15:40:39.035Z,98147.02
2018-07-20T15:43:07.598Z,98154.80
2018-07-20T15:45:36.533Z,98163.09
2018-07-20T15:48:05.415Z,98167.19
2018-07-20T15:50:34.073Z,98177.58
2018-07-20T15:55:31.258Z,98180.83
2018-07-20T15:57:59.823Z,98182.81
2018-07-20T16:00:28.500Z,98185.11
2018-07-20T16:02:57.177Z,98187.36
2018-07-20T16:05:25.946Z,98194.86
2018-07-20T16:07:54.574Z,98188.92
2018-07-20T16:10:23.257Z,98200.09
2018-07-20T16:12:51.757Z,98194.44
2018-07-20T16:15:20.235Z,98185.21
2018-07-20T16:17:48.849Z,98184.66
2018-07-20T16:20:17.544Z,98179.98
2018-07-20T16:22:46.270Z,98171.03
2018-07-20T16:25:14.766Z,98161.25
2018-07-20T16:27:43.367Z,98144.15
2018-07-20T16:30:12.218Z,98139.55
2018-07-20T16:32:40.734Z,98141.20
2018-07-20T16:35:09.218Z,98153.02
2018-07-20T16:37:38.849Z,98154.92
2018-07-20T16:40:07.427Z,98146.38
2018-07-20T16:42:36.026Z,98148.98
2018-07-20T16:45:05.133Z,98146.98
2018-07-20T16:47:33.697Z,98140.70
2018-07-20T16:50:02.497Z,98148.87
2018-07-20T16:52:32.145Z,98169.42
2018-07-20T16:55:00.674Z,98192.23
2018-07-20T16:57:29.273Z,98203.22
2018-07-20T16:59:57.883Z,98207.30
2018-07-20T17:02:26.563Z,98200.05
2018-07-20T17:04:55.065Z,98202.67
2018-07-20T17:07:23.837Z,98199.01
2018-07-20T17:09:55.460Z,98196.19
2018-07-20T17:12:24.062Z,98185.61
2018-07-20T17:14:52.590Z,98175.14
2018-07-20T17:17:21.089Z,98162.58
2018-07-20T17:19:49.670Z,98164.77
2018-07-20T17:22:18.202Z,98166.55
2018-07-20T17:24:46.771Z,98165.10
2018-07-20T17:27:15.357Z,98156.30
2018-07-20T17:29:43.861Z,98158.20
2018-07-20T17:32:12.434Z,98161.21
2018-07-20T17:34:41.334Z,98162.58
2018-07-20T17:37:09.881Z,98163.83
2018-07-20T17:39:38.646Z,98169.06
2018-07-20T17:42:07.314Z,98169.30
2018-07-20T17:44:35.835Z,98180.48
2018-07-20T17:47:04.419Z,98191.98
2018-07-20T17:49:33.074Z,98191.76
2018-07-20T17:52:01.764Z,98188.62
2018-07-20T17:54:30.269Z,98191.45
2018-07-20T17:56:58.830Z,98188.42
2018-07-20T17:59:27.515Z,98183.06
2018-07-20T18:01:56.047Z,98173.16
2018-07-20T18:04:24.658Z,98166.55
2018-07-20T18:06:53.141Z,98174.82
2018-07-20T18:09:21.642Z,98171.57
2018-07-20T18:11:50.433Z,98163.53
2018-07-20T18:14:18.933Z,98172.72
2018-07-20T18:16:47.511Z,98177.74
2018-07-20T18:19:16.144Z,98186.73
2018-07-20T18:21:44.665Z,98190.20
2018-07-20T18:24:13.172Z,98191.78
2018-07-20T18:26:41.726Z,98185.30
2018-07-20T18:29:10.296Z,98184.88
2018-07-20T18:31:38.833Z,98188.20
2018-07-20T18:34:07.394Z,98188.71
2018-07-20T18:36:36.071Z,98196.13
2018-07-20T18:39:06.586Z,98197.48
2018-07-20T18:41:35.106Z,98198.45
2018-07-20T18:44:03.757Z,98202.54
2018-07-20T18:46:32.417Z,98200.73
2018-07-20T18:49:00.942Z,98208.25
2018-07-20T18:51:29.434Z,98205.42
2018-07-20T18:53:58.363Z,98205.53
2018-07-20T18:56:27.010Z,98208.14
2018-07-20T18:58:55.688Z,98209.05
2018-07-20T19:01:24.225Z,98215.32
2018-07-20T19:03:52.749Z,98219.17
2018-07-20T19:06:21.230Z,98219.86
2018-07-20T19:08:49.922Z,98224.35
2018-07-20T19:11:18.454Z,98229.67
2018-07-20T19:13:47.119Z,98226.53
2018-07-20T19:16:15.662Z,98233.45
2018-07-20T19:18:44.157Z,98238.36
2018-07-20T19:21:12.714Z,98234.69
2018-07-20T19:23:41.348Z,98231.50
2018-07-20T19:26:09.829Z,98238.11
2018-07-20T19:28:39.538Z,98236.37
2018-07-20T19:31:08.169Z,98238.44
2018-07-20T19:33:36.958Z,98238.13
2018-07-20T19:36:05.440Z,98226.92
2018-07-20T19:38:33.927Z,98219.12
2018-07-20T19:41:02.438Z,98218.65
2018-07-20T19:43:31.017Z,98221.12
2018-07-20T19:45:59.691Z,98214.77
2018-07-20T19:48:28.179Z,98215.94
2018-07-20T19:50:56.816Z,98219.23
2018-07-20T19:53:25.442Z,98209.27
2018-07-20T19:55:53.928Z,98212.84
2018-07-20T19:58:22.622Z,98210.84
2018-07-20T20:00:51.245Z,98208.92
2018-07-20T20:03:19.915Z,98205.44
2018-07-20T20:05:48.648Z,98205.64
2018-07-20T20:08:17.159Z,98204.41
2018-07-20T20:10:45.724Z,98204.42
2018-07-20T20:13:14.246Z,98194.61
2018-07-20T20:15:43.266Z,98186.67
2018-07-20T20:18:11.797Z,98180.73
2018-07-20T20:20:40.570Z,98181.78
2018-07-20T20:23:09.067Z,98181.00
2018-07-20T20:25:37.604Z,98182.61
2018-07-20T20:28:06.150Z,98193.07
2018-07-20T20:30:34.798Z,98195.36
2018-07-20T20:33:07.897Z,98201.34
2018-07-20T20:35:36.435Z,98222.07
2018-07-20T20:38:05.102Z,98240.22
2018-07-20T20:40:33.757Z,98251.20
2018-07-20T20:43:02.310Z,98258.63
2018-07-20T20:45:30.829Z,98262.05
2018-07-20T20:47:59.477Z,98257.33
2018-07-20T20:50:28.103Z,98257.28
2018-07-20T20:52:56.665Z,98254.31
2018-07-20T20:55:25.212Z,98251.73
2018-07-20T20:57:53.769Z,98236.69
2018-07-20T21:00:22.417Z,98228.73
2018-07-20T21:02:50.936Z,98213.69
2018-07-20T21:05:19.559Z,98222.20
2018-07-20T21:07:48.292Z,98225.44
2018-07-20T21:10:16.834Z,98228.67
2018-07-20T21:12:45.305Z,98231.00
2018-07-20T21:15:13.789Z,98226.45
2018-07-20T21:17:42.606Z,98226.45
2018-07-20T21:20:11.145Z,98237.16
2018-07-20T21:22:39.818Z,98226.92
2018-07-20T21:25:08.433Z,98226.27
2018-07-20T21:27:37.077Z,98220.27
2018-07-20T21:30:05.923Z,98220.19
2018-07-20T21:32:34.532Z,98215.53
2018-07-20T21:35:03.219Z,98220.96
2018-07-20T21:37:31.846Z,98220.84
2018-07-20T21:40:00.361Z,98235.61
2018-07-20T21:42:28.901Z,98241.29
2018-07-20T21:44:57.489Z,98239.31
2018-07-20T21:47:26.079Z,98239.72
2018-07-20T21:49:54.602Z,98244.27
2018-07-20T21:52:23.182Z,98245.80
2018-07-20T21:54:51.917Z,98247.68
2018-07-20T21:57:20.550Z,98233.42
2018-07-20T21:59:49.133Z,98225.99
2018-07-20T22:02:17.686Z,98235.41
2018-07-20T22:04:46.482Z,98230.94
2018-07-20T22:07:15.394Z,98236.22
2018-07-20T22:09:43.915Z,98233.72
2018-07-20T22:12:12.634Z,98240.74
2018-07-20T22:14:41.440Z,98237.27
2018-07-20T22:17:09.971Z,98239.19
2018-07-20T22:19:38.638Z,98238.73
2018-07-20T22:22:07.216Z,98238.66
2018-07-20T22:24:35.730Z,98236.95
2018-07-20T22:27:04.397Z,98239.31
2018-07-20T22:29:33.098Z,98232.63
2018-07-20T22:32:01.604Z,98229.62
2018-07-20T22:34:30.122Z,98230.33
2018-07-20T22:36:58.650Z,98225.56
2018-07-20T22:39:27.286Z,98231.28
2018-07-20T22:41:55.878Z,98240.25
2018-07-20T22:44:24.411Z,98242.30
2018-07-20T22:46:53.292Z,98250.78
2018-07-20T22:49:22.374Z,98271.73
2018-07-20T22:51:50.966Z,98281.56
2018-07-20T22:54:19.444Z,98287.15
2018-07-20T22:56:48.382Z,98289.20
2018-07-20T22:59:16.918Z,98294.04
2018-07-20T23:01:45.366Z,98284.45
2018-07-20T23:04:13.880Z,98281.47
2018-07-20T23:06:42.379Z,98275.53
2018-07-20T23:09:11.558Z,98269.52
2018-07-20T23:11:40.771Z,98267.64
2018-07-20T23:14:09.339Z,98258.67
2018-07-20T23:16:38.285Z,98251.59
2018-07-20T23:19:07.782Z,98262.49
2018-07-20T23:21:36.354Z,98251.47
2018-07-20T23:24:05.067Z,98248.69
2018-07-20T23:26:33.615Z,98249.69
2018-07-20T23:29:02.388Z,98240.83
2018-07-20T23:31:30.956Z,98238.25
2018-07-20T23:33:59.426Z,98232.97
2018-07-20T23:36:27.927Z,98225.17
2018-07-20T23:38:56.399Z,98228.06
2018-07-20T23:41:25.303Z,98220.77
2018-07-20T23:43:53.773Z,98217.61
2018-07-20T23:46:22.246Z,98205.09
2018-07-20T23:48:53.634Z,98209.03
2018-07-20T23:51:22.638Z,98206.36
2018-07-20T23:53:51.229Z,98198.48
2018-07-20T23:56:19.755Z,98191.57
2018-07-20T23:58:48.371Z,98188.86
